createdAt,value
2022-11-24T00:03:05.851Z,72.32
2022-11-24T00:06:37.879Z,70.10
2022-11-24T00:10:10.348Z,72.97
2022-11-24T00:13:42.503Z,69.47
2022-11-24T00:17:14.543Z,88.38
2022-11-24T00:20:52.667Z,80.57
2022-11-24T00:24:24.745Z,82.15
2022-11-24T00:27:56.314Z,80.68
2022-11-24T00:31:37.548Z,70.80
2022-11-24T00:35:10.392Z,85.85
2022-11-24T00:38:42.468Z,72.95
2022-11-24T00:42:17.296Z,74.40
2022-11-24T00:45:49.330Z,71.10
2022-11-24T00:49:21.211Z,71.72
2022-11-24T00:52:53.166Z,67.18
2022-11-24T00:56:28.790Z,74.80
2022-11-24T01:00:00.736Z,80.32
2022-11-24T01:03:33.519Z,80.53
2022-11-24T01:07:07.388Z,71.83
2022-11-24T01:10:39.092Z,77.85
2022-11-24T01:14:10.934Z,80.95
2022-11-24T01:17:42.560Z,69.53
2022-11-24T01:21:15.886Z,81.20
2022-11-24T01:24:47.657Z,74.90
2022-11-24T01:28:19.593Z,83.20
2022-11-24T01:31:51.575Z,76.67
2022-11-24T01:35:23.713Z,69.30
2022-11-24T01:38:56.016Z,73.47
2022-11-24T01:42:40.005Z,70.53
2022-11-24T01:46:23.694Z,65.45
2022-11-24T01:49:59.121Z,66.68
2022-11-24T01:53:31.117Z,70.55
2022-11-24T01:57:15.590Z,78.40
2022-11-24T02:00:47.407Z,75.15
2022-11-24T02:04:24.131Z,68.55
2022-11-24T02:07:59.422Z,74.93
2022-11-24T02:11:37.355Z,73.05
2022-11-24T02:15:10.188Z,77.40
2022-11-24T02:18:43.303Z,80.13
2022-11-24T02:22:42.181Z,73.53
2022-11-24T02:26:35.578Z,74.53
2022-11-24T02:30:07.699Z,76.07
2022-11-24T02:33:39.878Z,76.13
2022-11-24T02:37:11.476Z,80.15
2022-11-24T02:40:46.452Z,72.88
2022-11-24T02:44:21.927Z,75.90
2022-11-24T02:47:53.869Z,68.28
2022-11-24T02:51:25.413Z,74.75
2022-11-24T02:54:57.486Z,70.07
2022-11-24T02:58:29.157Z,86.68
2022-11-24T03:02:01.189Z,81.35
2022-11-24T03:05:32.835Z,69.82
2022-11-24T03:09:06.200Z,67.57
2022-11-24T03:12:37.866Z,74.60
2022-11-24T03:16:10.537Z,70.97
2022-11-24T03:19:42.870Z,74.90
2022-11-24T03:23:14.712Z,65.53
2022-11-24T03:26:46.526Z,65.38
2022-11-24T03:30:19.462Z,71.50
2022-11-24T03:33:51.037Z,64.78
2022-11-24T03:37:23.189Z,70.15
2022-11-24T03:40:54.838Z,77.40
2022-11-24T03:44:26.718Z,68.23
2022-11-24T03:47:58.500Z,68.28
2022-11-24T03:51:30.559Z,64.30
2022-11-24T03:55:02.095Z,69.60
2022-11-24T03:58:34.560Z,80.90
2022-11-24T04:02:06.500Z,75.95
2022-11-24T04:05:38.492Z,82.80
2022-11-24T04:09:10.572Z,75.25
2022-11-24T04:12:45.119Z,71.97
2022-11-24T04:16:16.747Z,77.00
2022-11-24T04:19:48.828Z,80.63
2022-11-24T04:23:20.523Z,72.05
2022-11-24T04:26:52.371Z,78.40
2022-11-24T04:30:26.095Z,80.97
2022-11-24T04:33:57.991Z,78.18
2022-11-24T04:37:29.606Z,87.47
2022-11-24T04:41:03.402Z,78.70
2022-11-24T04:44:36.545Z,82.68
2022-11-24T04:48:08.723Z,80.47
2022-11-24T04:51:40.893Z,82.68
2022-11-24T04:55:13.062Z,77.60
2022-11-24T04:58:48.368Z,79.82
2022-11-24T05:02:20.603Z,87.00
2022-11-24T05:05:52.366Z,77.13
2022-11-24T05:09:41.729Z,82.38
2022-11-24T05:13:16.671Z,81.25
2022-11-24T05:16:49.216Z,77.97
2022-11-24T05:20:21.829Z,83.68
2022-11-24T05:23:53.932Z,78.18
2022-11-24T05:27:25.595Z,79.70
2022-11-24T05:31:00.766Z,85.03
2022-11-24T05:34:33.595Z,81.88
2022-11-24T05:38:05.704Z,89.28
2022-11-24T05:41:37.384Z,82.07
2022-11-24T05:45:12.660Z,83.57
2022-11-24T05:48:44.643Z,83.90
2022-11-24T05:52:16.805Z,79.37
2022-11-24T05:55:48.807Z,93.85
2022-11-24T05:59:21.400Z,77.78
2022-11-24T06:02:53.058Z,76.93
2022-11-24T06:06:25.190Z,71.90
2022-11-24T06:09:56.951Z,79.70
2022-11-24T06:13:28.834Z,84.82
2022-11-24T06:17:01.219Z,86.60
2022-11-24T06:20:34.326Z,82.00
2022-11-24T06:24:06.419Z,94.60
2022-11-24T06:27:38.327Z,87.40
2022-11-24T06:31:10.872Z,65.13
2022-11-24T06:34:43.113Z,74.85
2022-11-24T06:38:20.033Z,72.45
2022-11-24T06:41:55.050Z,76.33
2022-11-24T06:45:26.795Z,75.10
2022-11-24T06:48:59.865Z,71.35
2022-11-24T06:52:31.544Z,74.83
2022-11-24T06:56:15.172Z,73.75
2022-11-24T06:59:48.623Z,72.63
2022-11-24T07:03:21.056Z,74.57
2022-11-24T07:06:52.819Z,72.30
2022-11-24T07:10:24.725Z,65.05
2022-11-24T07:14:00.029Z,71.95
2022-11-24T07:17:37.953Z,79.97
2022-11-24T07:21:09.554Z,69.53
2022-11-24T07:24:41.640Z,76.65
2022-11-24T07:28:13.255Z,67.07
2022-11-24T07:31:47.057Z,70.30
2022-11-24T07:35:18.652Z,71.55
2022-11-24T07:38:50.831Z,70.90
2022-11-24T07:42:22.672Z,75.72
2022-11-24T07:45:54.789Z,76.10
2022-11-24T07:49:26.781Z,76.05
2022-11-24T07:53:05.034Z,67.93
2022-11-24T07:56:36.971Z,76.60
2022-11-24T08:00:13.947Z,82.93
2022-11-24T08:03:47.197Z,86.43
2022-11-24T08:07:19.639Z,85.13
2022-11-24T08:10:51.722Z,70.13
2022-11-24T08:14:23.676Z,78.47
2022-11-24T08:17:55.594Z,76.22
2022-11-24T08:21:27.520Z,75.10
2022-11-24T08:24:59.254Z,74.43
2022-11-24T08:28:31.983Z,78.07
2022-11-24T08:32:04.550Z,73.63
2022-11-24T08:35:38.334Z,79.00
2022-11-24T08:39:13.022Z,81.20
2022-11-24T08:42:45.071Z,93.38
2022-11-24T08:46:18.768Z,97.57
2022-11-24T08:49:50.808Z,93.93
2022-11-24T08:53:22.625Z,89.82
2022-11-24T08:56:54.522Z,95.35
2022-11-24T09:00:26.123Z,87.05
2022-11-24T09:03:58.697Z,85.33
2022-11-24T09:07:30.811Z,70.90
2022-11-24T09:11:13.113Z,77.40
2022-11-24T09:14:45.820Z,79.73
2022-11-24T09:18:17.734Z,90.50
2022-11-24T09:21:49.351Z,79.47
2022-11-24T09:25:21.614Z,88.13
2022-11-24T09:28:55.043Z,76.22
2022-11-24T09:32:29.689Z,87.43
2022-11-24T09:36:01.875Z,65.03
2022-11-24T09:39:34.153Z,81.47
2022-11-24T09:43:23.256Z,75.88
2022-11-24T09:47:29.367Z,79.57
2022-11-24T09:51:03.280Z,76.37
2022-11-24T09:54:37.452Z,75.70
2022-11-24T09:58:43.079Z,92.05
2022-11-24T10:02:15.222Z,64.03
2022-11-24T10:05:50.873Z,84.50
2022-11-24T10:09:55.386Z,83.13
2022-11-24T10:13:50.323Z,84.25
2022-11-24T10:17:47.527Z,75.57
2022-11-24T10:21:42.969Z,84.78
2022-11-24T10:25:50.145Z,91.05
2022-11-24T10:29:28.660Z,87.20
2022-11-24T10:33:06.080Z,95.68
2022-11-24T10:36:47.097Z,100.25
2022-11-24T10:40:58.552Z,100.70
2022-11-24T10:44:20.538Z,83.63
2022-11-24T10:47:52.406Z,87.85
2022-11-24T10:51:30.224Z,76.97
2022-11-24T10:55:04.649Z,80.27
2022-11-24T10:58:38.727Z,82.63
2022-11-24T11:02:30.840Z,82.63
2022-11-24T11:06:05.632Z,70.10
2022-11-24T11:09:38.756Z,74.50
2022-11-24T11:13:27.529Z,68.47
2022-11-24T11:17:00.481Z,65.73
2022-11-24T11:20:34.538Z,74.00
2022-11-24T11:24:18.202Z,73.65
2022-11-24T11:27:50.835Z,68.78
2022-11-24T11:31:24.527Z,67.73
2022-11-24T11:34:57.728Z,79.03
2022-11-24T11:38:37.353Z,71.25
2022-11-24T11:43:00.215Z,69.30
2022-11-24T11:46:21.330Z,69.78
2022-11-24T11:49:53.686Z,67.75
2022-11-24T11:53:37.173Z,65.43
2022-11-24T11:57:41.350Z,71.45
2022-11-24T12:01:22.476Z,68.70
2022-11-24T12:05:00.703Z,67.78
2022-11-24T12:09:19.806Z,67.17
2022-11-24T12:12:58.385Z,82.45
2022-11-24T12:16:35.330Z,78.53
2022-11-24T12:20:31.885Z,74.57
2022-11-24T12:24:15.858Z,74.57
2022-11-24T12:27:53.756Z,72.03
2022-11-24T12:32:04.907Z,72.20
2022-11-24T12:35:42.349Z,72.53
2022-11-24T12:39:25.721Z,73.93
2022-11-24T12:43:16.736Z,78.00
2022-11-24T12:47:10.212Z,78.77
2022-11-24T12:50:45.202Z,91.18
2022-11-24T12:54:20.531Z,75.70
2022-11-24T12:57:58.964Z,76.10
2022-11-24T13:01:42.409Z,81.82
2022-11-24T13:05:26.575Z,78.97
2022-11-24T13:08:59.286Z,76.77
2022-11-24T13:12:31.727Z,75.32
2022-11-24T13:16:35.068Z,72.15
2022-11-24T13:20:21.479Z,74.53
2022-11-24T13:24:05.675Z,71.37
2022-11-24T13:27:43.360Z,79.60
2022-11-24T13:31:22.879Z,70.47
2022-11-24T13:34:55.317Z,78.30
2022-11-24T13:38:42.072Z,74.93
2022-11-24T13:42:41.078Z,81.85
2022-11-24T13:46:09.848Z,76.43
2022-11-24T13:49:44.439Z,87.95
2022-11-24T13:53:35.150Z,77.65
2022-11-24T13:57:35.274Z,73.22
2022-11-24T14:01:15.048Z,86.10
2022-11-24T14:04:47.440Z,79.05
2022-11-24T14:08:26.577Z,89.82
2022-11-24T14:12:18.482Z,92.00
2022-11-24T14:16:18.891Z,79.25
2022-11-24T14:19:55.594Z,87.43
2022-11-24T14:23:27.868Z,86.83
2022-11-24T14:27:00.822Z,78.57
2022-11-24T14:30:32.713Z,84.93
2022-11-24T14:34:25.076Z,80.18
2022-11-24T14:37:57.377Z,87.03
2022-11-24T14:41:29.209Z,99.43
2022-11-24T14:45:03.925Z,73.57
2022-11-24T14:48:46.907Z,71.57
2022-11-24T14:52:21.924Z,88.95
2022-11-24T14:56:22.977Z,92.93
2022-11-24T15:00:20.393Z,80.63
2022-11-24T15:08:17.914Z,101.90
2022-11-24T15:11:49.874Z,91.88
2022-11-24T15:15:28.663Z,82.77
2022-11-24T15:19:02.067Z,88.93
2022-11-24T15:22:35.104Z,80.18
2022-11-24T15:26:06.625Z,72.23
2022-11-24T15:29:39.342Z,86.63
2022-11-24T15:33:15.619Z,80.13
2022-11-24T15:36:48.624Z,84.23
2022-11-24T15:40:20.398Z,96.90
2022-11-24T15:43:59.124Z,85.72
2022-11-24T15:47:31.210Z,83.10
2022-11-24T15:51:06.194Z,75.73
2022-11-24T15:54:37.845Z,90.90
2022-11-24T15:58:13.532Z,87.57
2022-11-24T16:01:48.236Z,84.57
2022-11-24T16:05:20.902Z,80.88
2022-11-24T16:08:53.947Z,85.07
2022-11-24T16:12:25.905Z,89.50
2022-11-24T16:15:57.608Z,89.95
2022-11-24T16:19:29.514Z,86.88
2022-11-24T16:23:02.202Z,97.45
2022-11-24T16:26:34.512Z,87.60
2022-11-24T16:30:06.749Z,94.30
2022-11-24T16:33:40.838Z,85.90
2022-11-24T16:37:12.498Z,96.57
2022-11-24T16:40:45.449Z,110.70
2022-11-24T16:44:17.043Z,98.25
2022-11-24T16:47:49.559Z,110.20
2022-11-24T16:51:22.757Z,104.28
2022-11-24T16:54:54.859Z,115.30
2022-11-24T16:58:26.639Z,109.90
2022-11-24T17:01:59.410Z,127.97
2022-11-24T17:05:31.298Z,112.60
2022-11-24T17:09:03.649Z,113.55
2022-11-24T17:12:36.700Z,119.57
2022-11-24T17:16:11.669Z,113.68
2022-11-24T17:19:43.961Z,111.45
2022-11-24T17:23:15.977Z,116.07
2022-11-24T17:26:51.263Z,118.07
2022-11-24T17:30:23.375Z,130.07
2022-11-24T17:33:56.937Z,107.03
2022-11-24T17:37:28.825Z,110.80
2022-11-24T17:41:00.721Z,115.82
2022-11-24T17:44:32.944Z,117.78
2022-11-24T17:48:05.543Z,120.83
2022-11-24T17:51:37.593Z,121.57
2022-11-24T17:55:10.349Z,118.53
2022-11-24T17:58:43.244Z,111.50
2022-11-24T18:02:15.573Z,98.75
2022-11-24T18:05:48.464Z,125.55
2022-11-24T18:09:20.257Z,122.25
2022-11-24T18:12:52.504Z,110.10
2022-11-24T18:16:25.772Z,108.65
2022-11-24T18:19:57.750Z,111.47
2022-11-24T18:23:31.342Z,114.67
2022-11-24T18:27:03.676Z,111.10
2022-11-24T18:30:35.489Z,111.30
2022-11-24T18:34:07.987Z,100.53
2022-11-24T18:37:44.276Z,114.05
2022-11-24T18:41:18.098Z,112.80
2022-11-24T18:44:52.714Z,99.50
2022-11-24T18:48:26.655Z,102.63
2022-11-24T18:51:59.417Z,108.45
2022-11-24T18:55:31.584Z,106.88
2022-11-24T18:59:03.392Z,105.03
2022-11-24T19:02:35.488Z,102.97
2022-11-24T19:06:11.516Z,107.82
2022-11-24T19:09:44.342Z,97.37
2022-11-24T19:13:15.929Z,108.35
2022-11-24T19:16:48.384Z,118.25
2022-11-24T19:20:20.166Z,113.88
2022-11-24T19:23:53.006Z,115.30
2022-11-24T19:27:24.966Z,116.25
2022-11-24T19:31:07.844Z,96.22
2022-11-24T19:34:39.618Z,100.77
2022-11-24T19:38:14.991Z,116.00
2022-11-24T19:41:47.050Z,123.22
2022-11-24T19:45:19.360Z,115.47
2022-11-24T19:48:54.225Z,120.00
2022-11-24T19:52:26.218Z,105.93
2022-11-24T19:56:13.474Z,107.57
2022-11-24T19:59:46.631Z,120.03
2022-11-24T20:03:18.399Z,117.85
2022-11-24T20:06:51.410Z,115.68
2022-11-24T20:10:23.307Z,134.77
2022-11-24T20:13:56.623Z,109.50
2022-11-24T20:17:30.070Z,114.47
2022-11-24T20:21:06.813Z,107.53
2022-11-24T20:24:38.848Z,98.63
2022-11-24T20:28:13.862Z,109.35
2022-11-24T20:31:48.444Z,115.55
2022-11-24T20:35:20.447Z,116.93
2022-11-24T20:38:53.011Z,110.65
2022-11-24T20:42:25.135Z,115.43
2022-11-24T20:45:56.895Z,113.87
2022-11-24T20:49:29.006Z,121.50
2022-11-24T20:53:00.533Z,105.55
2022-11-24T20:56:35.316Z,115.23
2022-11-24T21:00:07.763Z,99.18
2022-11-24T21:03:43.277Z,107.30
2022-11-24T21:07:15.871Z,106.65
2022-11-24T21:10:58.647Z,111.13
2022-11-24T21:14:35.142Z,114.85
2022-11-24T21:18:07.466Z,117.78
2022-11-24T21:21:42.497Z,119.73
2022-11-24T21:25:14.891Z,125.20
2022-11-24T21:28:47.521Z,127.88
2022-11-24T21:32:19.445Z,115.57
2022-11-24T21:35:51.345Z,114.93
2022-11-24T21:39:23.285Z,127.90
2022-11-24T21:42:54.937Z,117.22
2022-11-24T21:46:28.740Z,113.50
2022-11-24T21:50:00.441Z,121.03
2022-11-24T21:53:36.963Z,121.60
2022-11-24T21:57:09.561Z,129.00
2022-11-24T22:00:41.752Z,114.30
2022-11-24T22:04:13.391Z,115.43
2022-11-24T22:07:45.362Z,124.50
2022-11-24T22:11:19.708Z,135.55
2022-11-24T22:14:52.975Z,129.68
2022-11-24T22:18:24.721Z,134.43
2022-11-24T22:21:56.636Z,117.67
2022-11-24T22:25:29.284Z,132.77
2022-11-24T22:29:01.667Z,130.15
2022-11-24T22:32:33.280Z,120.60
2022-11-24T22:36:05.618Z,115.53
2022-11-24T22:39:37.256Z,147.18
2022-11-24T22:43:09.078Z,139.90
2022-11-24T22:46:41.643Z,132.93
2022-11-24T22:50:14.045Z,133.73
2022-11-24T22:53:50.122Z,134.38
2022-11-24T22:57:22.388Z,124.70
2022-11-24T23:00:54.862Z,109.32
2022-11-24T23:04:26.877Z,126.80
2022-11-24T23:07:58.539Z,138.07
2022-11-24T23:11:38.820Z,156.57
2022-11-24T23:15:10.634Z,149.98
2022-11-24T23:18:43.705Z,137.63
2022-11-24T23:22:15.287Z,138.10
2022-11-24T23:25:48.114Z,162.45
2022-11-24T23:29:19.870Z,151.88
2022-11-24T23:32:52.692Z,151.23
2022-11-24T23:36:24.644Z,136.65
2022-11-24T23:39:59.229Z,128.70
2022-11-24T23:43:34.955Z,125.00
2022-11-24T23:47:06.805Z,129.45
2022-11-24T23:50:38.393Z,109.93
2022-11-24T23:54:10.322Z,105.53
2022-11-24T23:57:42.409Z,102.90
